Buoy 46562

sailwx.info

Track history (hours):
 
Tides and Currents Weather Stations Pressure Air Temp Water Temp Dewpoint Dewpoint Depression Visibility Wind Speed Wind Dir Waves Ship Positions

Drifting buoy 46562

Last reported at 2014-Aug-21 10:00 UTC. Time now 2014-Aug-21 12:10 UTC.
Position N 57°55' W 137°48'.

Water temperature 15.2 ° C

Date/timePositionNaut miles runAvg speedWind from/ knotsBaromVisibWave heightAir tempDewpointWater temp
2014-Aug-21 10:00N 57°55' W 137°48'1 0.2 15.2
2014-Aug-21 05:00N 57°55' W 137°46'1 0.8 15.3
2014-Aug-21 04:00N 57°55' W 137°45'0 0.5 15.4
2014-Aug-21 03:00N 57°55' W 137°46'0 0.1 15.4
2014-Aug-21 02:00N 57°55' W 137°46'0 0.2 15.4
2014-Aug-21 01:00N 57°55' W 137°45'0 0.3 15.4
2014-Aug-21 00:00N 57°55' W 137°45'0 0.3 15.4
2014-Aug-20 23:00N 57°55' W 137°44'0 0.0 15.4
2014-Aug-20 22:00N 57°55' W 137°44'0 0.3 15.4
2014-Aug-20 21:00N 57°55' W 137°44'0 0.1 15.3
2014-Aug-20 20:00N 57°55' W 137°44'0 0.3 15.3
2014-Aug-20 19:00N 57°56' W 137°44'1 1.1 15.2
2014-Aug-20 18:00N 57°55' W 137°42'0 0.0 15.1
2014-Aug-20 17:00N 57°55' W 137°42'1 1.2 15.1
2014-Aug-20 16:00N 57°56' W 137°44'0 0.4 15.1
2014-Aug-20 15:00N 57°55' W 137°44'2 0.9 15.1
2014-Aug-20 13:00N 57°54' W 137°42'1 0.6 15.1
2014-Aug-20 11:00N 57°55' W 137°43'0 0.1 15.1
2014-Aug-20 10:00N 57°55' W 137°43'1 0.6 15.1
2014-Aug-20 09:00N 57°55' W 137°44'2 0.6 15.2
2014-Aug-20 06:00N 57°55' W 137°41'0 0.0 15.2
2014-Aug-20 05:00N 57°55' W 137°41'0 0.4 15.2
2014-Aug-20 04:00N 57°54' W 137°42'0 0.4 15.2
2014-Aug-20 03:00N 57°55' W 137°42'1 0.9 15.3
2014-Aug-20 02:00N 57°54' W 137°41'1 1.2 15.3
2014-Aug-20 01:00N 57°54' W 137°43'0 0.1 15.3
2014-Aug-19 23:00N 57°54' W 137°43'1 0.8 15.2
2014-Aug-19 22:00N 57°54' W 137°42'0 0.1 15.2
2014-Aug-19 21:00N 57°54' W 137°42'0 0.0 15.1
2014-Aug-19 20:00N 57°54' W 137°42'1 0.8 15.1
2014-Aug-19 19:00N 57°54' W 137°43'0 0.1 15.0
2014-Aug-19 18:00N 57°54' W 137°43'1 0.3 15.0
2014-Aug-19 16:00N 57°54' W 137°44'1 0.4 14.9
2014-Aug-19 14:00N 57°55' W 137°44'1 1.3 14.9
2014-Aug-19 13:00N 57°54' W 137°44'1 0.7 14.9
2014-Aug-19 12:00N 57°53' W 137°43'0 0.0 14.9
2014-Aug-19 10:00N 57°53' W 137°43'1 0.4 15.0
2014-Aug-19 08:00N 57°54' W 137°42'0 0.0 15.0
2014-Aug-19 07:00N 57°54' W 137°42'0 0.2 15.0
2014-Aug-19 06:00N 57°53' W 137°42'0 0.1 15.0
2014-Aug-19 04:00N 57°53' W 137°42'1 0.7 15.1
2014-Aug-19 03:00N 57°54' W 137°42'1 0.8 15.1
2014-Aug-19 02:00N 57°54' W 137°43'0 0.2 15.1
2014-Aug-18 23:00N 57°53' W 137°43'0 0.4 15.1
2014-Aug-18 22:00N 57°53' W 137°44'0 0.3 15.0
2014-Aug-18 21:00N 57°53' W 137°44'0 0.2 15.0
2014-Aug-18 20:00N 57°53' W 137°43'1 0.3 14.9
2014-Aug-18 18:00N 57°53' W 137°45'0 0.4 14.9
2014-Aug-18 17:00N 57°53' W 137°45'1 0.6 14.9
2014-Aug-18 16:00N 57°53' W 137°44'1 0.6 14.9
2014-Aug-18 15:00N 57°53' W 137°45'0 0.2 14.8
2014-Aug-18 14:00N 57°53' W 137°45'1 0.5 14.8
2014-Aug-18 13:00N 57°54' W 137°44'1 1.1 14.9
2014-Aug-18 12:00N 57°53' W 137°45'0 0.0 14.9
2014-Aug-18 11:00N 57°53' W 137°45'1 0.6 14.9
2014-Aug-18 10:00N 57°52' W 137°46'0 0.0 14.9
2014-Aug-18 09:00N 57°52' W 137°46'1 0.2 14.9
2014-Aug-18 05:00N 57°53' W 137°45'0 0.0 14.9
2014-Aug-18 04:00N 57°53' W 137°45'0 0.3 14.9
2014-Aug-18 03:00N 57°53' W 137°45'1 0.5 14.9
2014-Aug-18 02:00N 57°52' W 137°46'0 0.0 14.9
2014-Aug-18 01:00N 57°52' W 137°46'1 0.8 14.9
2014-Aug-18 00:00N 57°52' W 137°47'0 0.1 14.9
2014-Aug-17 23:00N 57°52' W 137°47'0 0.2 14.9
2014-Aug-17 21:00N 57°51' W 137°47'1 0.6 14.9
2014-Aug-17 19:00N 57°52' W 137°48'0 0.4 14.9
2014-Aug-17 18:00N 57°52' W 137°48'1 0.4 14.9
2014-Aug-17 16:00N 57°52' W 137°49'0 0.0 14.9
2014-Aug-17 15:00N 57°52' W 137°49'1 1.0 15.0
2014-Aug-17 14:00N 57°51' W 137°50'0 0.2 15.0
2014-Aug-17 13:00N 57°51' W 137°51'1 1.4 15.0
2014-Aug-17 12:00N 57°50' W 137°51'0 0.0 15.0
2014-Aug-17 06:00N 57°50' W 137°51'0 0.0 15.0
2014-Aug-17 05:00N 57°50' W 137°51'3 0.9 15.1
2014-Aug-17 02:00N 57°50' W 137°56'2 1.8 15.1
2014-Aug-17 01:00N 57°48' W 137°56'1 0.8 15.1
2014-Aug-17 00:00N 57°47' W 137°56'1 0.8 15.2
2014-Aug-16 23:00N 57°47' W 137°57'1 0.9 15.2
2014-Aug-16 22:00N 57°46' W 137°58'1 0.6 15.2
2014-Aug-16 21:00N 57°46' W 137°57'1 0.3 15.2
2014-Aug-16 19:00N 57°46' W 137°56'1 1.1 15.2
2014-Aug-16 18:00N 57°47' W 137°55'0 0.0 15.2
2014-Aug-16 17:00N 57°47' W 137°55'1 0.6 15.2
2014-Aug-16 15:00N 57°48' W 137°57'1 0.5 15.1
2014-Aug-16 14:00N 57°48' W 137°58'2 1.5 15.1
2014-Aug-16 13:00N 57°47' W 138°01'0 0.1 15.2
2014-Aug-16 12:00N 57°47' W 138°01'1 1.1 15.2
2014-Aug-16 11:00N 57°46' W 138°01'1 0.6 15.2
2014-Aug-16 09:00N 57°46' W 137°59'0 0.0 15.2
2014-Aug-16 07:00N 57°46' W 137°59'0 0.3 15.3
2014-Aug-16 06:00N 57°46' W 137°59'0 0.5 15.3
2014-Aug-16 05:00N 57°46' W 137°59'1 0.8 15.4
2014-Aug-16 04:00N 57°46' W 138°00'0 0.0 15.4
2014-Aug-16 03:00N 57°46' W 138°00'2 2.0 15.4
2014-Aug-16 02:00N 57°48' W 138°02'0 0.2 15.4
2014-Aug-16 01:00N 57°48' W 138°02'1 0.6 15.4
2014-Aug-15 23:00N 57°48' W 138°04'1 0.7 15.3
2014-Aug-15 22:00N 57°47' W 138°05'0 0.4 15.3
2014-Aug-15 21:00N 57°47' W 138°06'0 0.3 15.2
2014-Aug-15 20:00N 57°47' W 138°05'1 0.5 15.2
2014-Aug-15 19:00N 57°47' W 138°04'0 0.2 15.2
2014-Aug-15 17:00N 57°47' W 138°04'1 0.9 15.0
2014-Aug-15 16:00N 57°47' W 138°05'1 1.0 15.0
2014-Aug-15 15:00N 57°48' W 138°04'1 0.8 15.0
2014-Aug-15 14:00N 57°49' W 138°05'0 0.4 15.0
2014-Aug-15 13:00N 57°49' W 138°06'1 0.6 15.0
2014-Aug-15 12:00N 57°49' W 138°07'1 0.8 15.1
2014-Aug-15 11:00N 57°50' W 138°08'2 0.4 15.1
2014-Aug-15 07:00N 57°49' W 138°10'1 0.7 15.1
2014-Aug-15 06:00N 57°48' W 138°11'1 0.7 15.1
2014-Aug-15 05:00N 57°47' W 138°11'1 0.9 15.1
2014-Aug-15 04:00N 57°47' W 138°12'1 1.1 15.1
2014-Aug-15 03:00N 57°47' W 138°10'1 0.9 15.2
2014-Aug-15 02:00N 57°47' W 138°12'1 0.7 15.2
2014-Aug-15 01:00N 57°46' W 138°12'0 0.0 15.2
2014-Aug-15 00:00N 57°46' W 138°12'0 0.3 15.2
2014-Aug-14 23:00N 57°46' W 138°12'0 0.5 15.2
2014-Aug-14 22:00N 57°47' W 138°13'0 0.0 15.2
2014-Aug-14 21:00N 57°47' W 138°13'0 0.1 15.2
2014-Aug-14 19:00N 57°47' W 138°13'2 1.2 15.2
2014-Aug-14 17:00N 57°48' W 138°16'0 0.0 15.2
2014-Aug-14 16:00N 57°48' W 138°16'0 0.3 15.2
2014-Aug-14 15:00N 57°48' W 138°17'1 0.7 15.2
2014-Aug-14 14:00N 57°48' W 138°18'0 0.5 15.2
2014-Aug-14 13:00N 57°48' W 138°19'0 0.4 15.2
2014-Aug-14 12:00N 57°47' W 138°19'2 2.3 15.2
2014-Aug-14 11:00N 57°49' W 138°22'0 0.0 15.2
2014-Aug-14 08:00N 57°49' W 138°22'0 0.2 15.2
2014-Aug-14 06:00N 57°49' W 138°21'0 0.5 15.2
2014-Aug-14 05:00N 57°49' W 138°21'1 0.7 15.2
2014-Aug-14 03:00N 57°50' W 138°23'2 1.9 15.2
2014-Aug-14 02:00N 57°50' W 138°26'0 0.3 15.2
2014-Aug-14 01:00N 57°50' W 138°27'0 0.3 15.2
2014-Aug-14 00:00N 57°49' W 138°27'0 0.1 15.2
2014-Aug-13 23:00N 57°49' W 138°27'0 0.3 15.2
2014-Aug-13 22:00N 57°49' W 138°28'0 0.2 15.2
2014-Aug-13 21:00N 57°49' W 138°27'0 0.3 15.2
2014-Aug-13 20:00N 57°50' W 138°27'0 0.3 15.2
2014-Aug-13 19:00N 57°50' W 138°27'3 3.2 15.2
2014-Aug-13 18:00N 57°52' W 138°32'0 0.2 15.2
2014-Aug-13 16:00N 57°52' W 138°31'0 0.3 15.2
2014-Aug-13 15:00N 57°52' W 138°30'4 2.0 15.2
2014-Aug-13 13:00N 57°51' W 138°38'0 0.0 15.2
2014-Aug-13 12:00N 57°51' W 138°38'0 0.2 15.3
2014-Aug-13 11:00N 57°51' W 138°37'2 0.8 15.3
2014-Aug-13 09:00N 57°50' W 138°39'0 0.1 15.3
2014-Aug-13 06:00N 57°50' W 138°39'1 0.6 15.4
2014-Aug-13 04:00N 57°51' W 138°40'2 1.7 15.4
2014-Aug-13 03:00N 57°53' W 138°41'1 1.3 15.4
2014-Aug-13 02:00N 57°52' W 138°43'1 0.6 15.4
2014-Aug-13 01:00N 57°53' W 138°43'1 1.2 15.5
2014-Aug-13 00:00N 57°53' W 138°46'1 0.8 15.5
2014-Aug-12 23:00N 57°53' W 138°47'2 1.9 15.4
2014-Aug-12 22:00N 57°52' W 138°50'0 0.0 15.4
2014-Aug-12 21:00N 57°52' W 138°50'1 1.4 15.3
2014-Aug-12 20:00N 57°51' W 138°52'0 0.1 15.3
2014-Aug-12 18:00N 57°51' W 138°52'0 0.0 15.1
2014-Aug-12 16:00N 57°51' W 138°52'1 1.3 15.1
2014-Aug-12 15:00N 57°52' W 138°54'0 0.5 15.1
2014-Aug-12 14:00N 57°52' W 138°55'0 0.1 15.1
2014-Aug-12 13:00N 57°52' W 138°55'2 1.6 15.1
2014-Aug-12 12:00N 57°52' W 138°57'1 1.2 15.1
2014-Aug-12 11:00N 57°53' W 138°60'0 0.4 15.1
2014-Aug-12 10:00N 57°53' W 139°00'2 0.8 15.1
2014-Aug-12 07:00N 57°52' W 139°04'1 1.4 15.1
2014-Aug-12 06:00N 57°51' W 139°06'0 0.0 15.1
2014-Aug-12 05:00N 57°51' W 139°06'0 0.5 15.2
2014-Aug-12 04:00N 57°51' W 139°05'1 0.9 15.2
2014-Aug-12 03:00N 57°50' W 139°07'0 0.4 15.2
2014-Aug-12 02:00N 57°50' W 139°07'0 0.0 15.2
2014-Aug-12 00:00N 57°50' W 139°07'0 0.3 15.2
2014-Aug-11 23:00N 57°50' W 139°07'1 0.8 15.2
2014-Aug-11 22:00N 57°51' W 139°09'1 1.1 15.2
2014-Aug-11 21:00N 57°51' W 139°11'2 1.5 15.2
2014-Aug-11 20:00N 57°50' W 139°13'0 0.0 15.2
2014-Aug-11 19:00N 57°50' W 139°13'2 2.3 15.1
2014-Aug-11 18:00N 57°49' W 139°17'1 1.0 15.1
2014-Aug-11 17:00N 57°49' W 139°19'1 0.8 15.1
2014-Aug-11 16:00N 57°48' W 139°18'2 2.0 15.1
2014-Aug-11 15:00N 57°46' W 139°19'1 0.4 15.1
2014-Aug-11 13:00N 57°45' W 139°19'1 0.6 15.1
2014-Aug-11 12:00N 57°45' W 139°19'0 0.0 15.1
2014-Aug-11 10:00N 57°45' W 139°19'   15.1
Track history (hours):
 
Tides and Currents Weather Stations Pressure Air Temp Water Temp Dewpoint Dewpoint Depression Visibility Wind Speed Wind Dir Waves Ship Positions

Drifting buoy 46562

Last reported at 2014-Aug-21 10:00 UTC. Time now 2014-Aug-21 12:10 UTC.
Position N 57°55' W 137°48'.

Water temperature 15.2 ° C

Date/timePositionNaut miles runAvg speedWind from/ knotsBaromVisibWave heightAir tempDewpointWater temp
2014-Aug-21 10:00N 57°55' W 137°48'1 0.2 15.2
2014-Aug-21 05:00N 57°55' W 137°46'1 0.8 15.3
2014-Aug-21 04:00N 57°55' W 137°45'0 0.5 15.4
2014-Aug-21 03:00N 57°55' W 137°46'0 0.1 15.4
2014-Aug-21 02:00N 57°55' W 137°46'0 0.2 15.4
2014-Aug-21 01:00N 57°55' W 137°45'0 0.3 15.4
2014-Aug-21 00:00N 57°55' W 137°45'0 0.3 15.4
2014-Aug-20 23:00N 57°55' W 137°44'0 0.0 15.4
2014-Aug-20 22:00N 57°55' W 137°44'0 0.3 15.4
2014-Aug-20 21:00N 57°55' W 137°44'0 0.1 15.3
2014-Aug-20 20:00N 57°55' W 137°44'0 0.3 15.3
2014-Aug-20 19:00N 57°56' W 137°44'1 1.1 15.2
2014-Aug-20 18:00N 57°55' W 137°42'0 0.0 15.1
2014-Aug-20 17:00N 57°55' W 137°42'1 1.2 15.1
2014-Aug-20 16:00N 57°56' W 137°44'0 0.4 15.1
2014-Aug-20 15:00N 57°55' W 137°44'2 0.9 15.1
2014-Aug-20 13:00N 57°54' W 137°42'1 0.6 15.1
2014-Aug-20 11:00N 57°55' W 137°43'0 0.1 15.1
2014-Aug-20 10:00N 57°55' W 137°43'1 0.6 15.1
2014-Aug-20 09:00N 57°55' W 137°44'2 0.6 15.2
2014-Aug-20 06:00N 57°55' W 137°41'0 0.0 15.2
2014-Aug-20 05:00N 57°55' W 137°41'0 0.4 15.2
2014-Aug-20 04:00N 57°54' W 137°42'0 0.4 15.2
2014-Aug-20 03:00N 57°55' W 137°42'1 0.9 15.3
2014-Aug-20 02:00N 57°54' W 137°41'1 1.2 15.3
2014-Aug-20 01:00N 57°54' W 137°43'0 0.1 15.3
2014-Aug-19 23:00N 57°54' W 137°43'1 0.8 15.2
2014-Aug-19 22:00N 57°54' W 137°42'0 0.1 15.2
2014-Aug-19 21:00N 57°54' W 137°42'0 0.0 15.1
2014-Aug-19 20:00N 57°54' W 137°42'1 0.8 15.1
2014-Aug-19 19:00N 57°54' W 137°43'0 0.1 15.0
2014-Aug-19 18:00N 57°54' W 137°43'1 0.3 15.0
2014-Aug-19 16:00N 57°54' W 137°44'1 0.4 14.9
2014-Aug-19 14:00N 57°55' W 137°44'1 1.3 14.9
2014-Aug-19 13:00N 57°54' W 137°44'1 0.7 14.9
2014-Aug-19 12:00N 57°53' W 137°43'0 0.0 14.9
2014-Aug-19 10:00N 57°53' W 137°43'1 0.4 15.0
2014-Aug-19 08:00N 57°54' W 137°42'0 0.0 15.0
2014-Aug-19 07:00N 57°54' W 137°42'0 0.2 15.0
2014-Aug-19 06:00N 57°53' W 137°42'0 0.1 15.0
2014-Aug-19 04:00N 57°53' W 137°42'1 0.7 15.1
2014-Aug-19 03:00N 57°54' W 137°42'1 0.8 15.1
2014-Aug-19 02:00N 57°54' W 137°43'0 0.2 15.1
2014-Aug-18 23:00N 57°53' W 137°43'0 0.4 15.1
2014-Aug-18 22:00N 57°53' W 137°44'0 0.3 15.0
2014-Aug-18 21:00N 57°53' W 137°44'0 0.2 15.0
2014-Aug-18 20:00N 57°53' W 137°43'1 0.3 14.9
2014-Aug-18 18:00N 57°53' W 137°45'0 0.4 14.9
2014-Aug-18 17:00N 57°53' W 137°45'1 0.6 14.9
2014-Aug-18 16:00N 57°53' W 137°44'1 0.6 14.9
2014-Aug-18 15:00N 57°53' W 137°45'0 0.2 14.8
2014-Aug-18 14:00N 57°53' W 137°45'1 0.5 14.8
2014-Aug-18 13:00N 57°54' W 137°44'1 1.1 14.9
2014-Aug-18 12:00N 57°53' W 137°45'0 0.0 14.9
2014-Aug-18 11:00N 57°53' W 137°45'1 0.6 14.9
2014-Aug-18 10:00N 57°52' W 137°46'0 0.0 14.9
2014-Aug-18 09:00N 57°52' W 137°46'1 0.2 14.9
2014-Aug-18 05:00N 57°53' W 137°45'0 0.0 14.9
2014-Aug-18 04:00N 57°53' W 137°45'0 0.3 14.9
2014-Aug-18 03:00N 57°53' W 137°45'1 0.5 14.9
2014-Aug-18 02:00N 57°52' W 137°46'0 0.0 14.9
2014-Aug-18 01:00N 57°52' W 137°46'1 0.8 14.9
2014-Aug-18 00:00N 57°52' W 137°47'0 0.1 14.9
2014-Aug-17 23:00N 57°52' W 137°47'0 0.2 14.9
2014-Aug-17 21:00N 57°51' W 137°47'1 0.6 14.9
2014-Aug-17 19:00N 57°52' W 137°48'0 0.4 14.9
2014-Aug-17 18:00N 57°52' W 137°48'1 0.4 14.9
2014-Aug-17 16:00N 57°52' W 137°49'0 0.0 14.9
2014-Aug-17 15:00N 57°52' W 137°49'1 1.0 15.0
2014-Aug-17 14:00N 57°51' W 137°50'0 0.2 15.0
2014-Aug-17 13:00N 57°51' W 137°51'1 1.4 15.0
2014-Aug-17 12:00N 57°50' W 137°51'0 0.0 15.0
2014-Aug-17 06:00N 57°50' W 137°51'0 0.0 15.0
2014-Aug-17 05:00N 57°50' W 137°51'3 0.9 15.1
2014-Aug-17 02:00N 57°50' W 137°56'2 1.8 15.1
2014-Aug-17 01:00N 57°48' W 137°56'1 0.8 15.1
2014-Aug-17 00:00N 57°47' W 137°56'1 0.8 15.2
2014-Aug-16 23:00N 57°47' W 137°57'1 0.9 15.2
2014-Aug-16 22:00N 57°46' W 137°58'1 0.6 15.2
2014-Aug-16 21:00N 57°46' W 137°57'1 0.3 15.2
2014-Aug-16 19:00N 57°46' W 137°56'1 1.1 15.2
2014-Aug-16 18:00N 57°47' W 137°55'0 0.0 15.2
2014-Aug-16 17:00N 57°47' W 137°55'1 0.6 15.2
2014-Aug-16 15:00N 57°48' W 137°57'1 0.5 15.1
2014-Aug-16 14:00N 57°48' W 137°58'2 1.5 15.1
2014-Aug-16 13:00N 57°47' W 138°01'0 0.1 15.2
2014-Aug-16 12:00N 57°47' W 138°01'1 1.1 15.2
2014-Aug-16 11:00N 57°46' W 138°01'1 0.6 15.2
2014-Aug-16 09:00N 57°46' W 137°59'0 0.0 15.2
2014-Aug-16 07:00N 57°46' W 137°59'0 0.3 15.3
2014-Aug-16 06:00N 57°46' W 137°59'0 0.5 15.3
2014-Aug-16 05:00N 57°46' W 137°59'1 0.8 15.4
2014-Aug-16 04:00N 57°46' W 138°00'0 0.0 15.4
2014-Aug-16 03:00N 57°46' W 138°00'2 2.0 15.4
2014-Aug-16 02:00N 57°48' W 138°02'0 0.2 15.4
2014-Aug-16 01:00N 57°48' W 138°02'1 0.6 15.4
2014-Aug-15 23:00N 57°48' W 138°04'1 0.7 15.3
2014-Aug-15 22:00N 57°47' W 138°05'0 0.4 15.3
2014-Aug-15 21:00N 57°47' W 138°06'0 0.3 15.2
2014-Aug-15 20:00N 57°47' W 138°05'1 0.5 15.2
2014-Aug-15 19:00N 57°47' W 138°04'0 0.2 15.2
2014-Aug-15 17:00N 57°47' W 138°04'1 0.9 15.0
2014-Aug-15 16:00N 57°47' W 138°05'1 1.0 15.0
2014-Aug-15 15:00N 57°48' W 138°04'1 0.8 15.0
2014-Aug-15 14:00N 57°49' W 138°05'0 0.4 15.0
2014-Aug-15 13:00N 57°49' W 138°06'1 0.6 15.0
2014-Aug-15 12:00N 57°49' W 138°07'1 0.8 15.1
2014-Aug-15 11:00N 57°50' W 138°08'2 0.4 15.1
2014-Aug-15 07:00N 57°49' W 138°10'1 0.7 15.1
2014-Aug-15 06:00N 57°48' W 138°11'1 0.7 15.1
2014-Aug-15 05:00N 57°47' W 138°11'1 0.9 15.1
2014-Aug-15 04:00N 57°47' W 138°12'1 1.1 15.1
2014-Aug-15 03:00N 57°47' W 138°10'1 0.9 15.2
2014-Aug-15 02:00N 57°47' W 138°12'1 0.7 15.2
2014-Aug-15 01:00N 57°46' W 138°12'0 0.0 15.2
2014-Aug-15 00:00N 57°46' W 138°12'0 0.3 15.2
2014-Aug-14 23:00N 57°46' W 138°12'0 0.5 15.2
2014-Aug-14 22:00N 57°47' W 138°13'0 0.0 15.2
2014-Aug-14 21:00N 57°47' W 138°13'0 0.1 15.2
2014-Aug-14 19:00N 57°47' W 138°13'2 1.2 15.2
2014-Aug-14 17:00N 57°48' W 138°16'0 0.0 15.2
2014-Aug-14 16:00N 57°48' W 138°16'0 0.3 15.2
2014-Aug-14 15:00N 57°48' W 138°17'1 0.7 15.2
2014-Aug-14 14:00N 57°48' W 138°18'0 0.5 15.2
2014-Aug-14 13:00N 57°48' W 138°19'0 0.4 15.2
2014-Aug-14 12:00N 57°47' W 138°19'2 2.3 15.2
2014-Aug-14 11:00N 57°49' W 138°22'0 0.0 15.2
2014-Aug-14 08:00N 57°49' W 138°22'0 0.2 15.2
2014-Aug-14 06:00N 57°49' W 138°21'0 0.5 15.2
2014-Aug-14 05:00N 57°49' W 138°21'1 0.7 15.2
2014-Aug-14 03:00N 57°50' W 138°23'2 1.9 15.2
2014-Aug-14 02:00N 57°50' W 138°26'0 0.3 15.2
2014-Aug-14 01:00N 57°50' W 138°27'0 0.3 15.2
2014-Aug-14 00:00N 57°49' W 138°27'0 0.1 15.2
2014-Aug-13 23:00N 57°49' W 138°27'0 0.3 15.2
2014-Aug-13 22:00N 57°49' W 138°28'0 0.2 15.2
2014-Aug-13 21:00N 57°49' W 138°27'0 0.3 15.2
2014-Aug-13 20:00N 57°50' W 138°27'0 0.3 15.2
2014-Aug-13 19:00N 57°50' W 138°27'3 3.2 15.2
2014-Aug-13 18:00N 57°52' W 138°32'0 0.2 15.2
2014-Aug-13 16:00N 57°52' W 138°31'0 0.3 15.2
2014-Aug-13 15:00N 57°52' W 138°30'4 2.0 15.2
2014-Aug-13 13:00N 57°51' W 138°38'0 0.0 15.2
2014-Aug-13 12:00N 57°51' W 138°38'0 0.2 15.3
2014-Aug-13 11:00N 57°51' W 138°37'2 0.8 15.3
2014-Aug-13 09:00N 57°50' W 138°39'0 0.1 15.3
2014-Aug-13 06:00N 57°50' W 138°39'1 0.6 15.4
2014-Aug-13 04:00N 57°51' W 138°40'2 1.7 15.4
2014-Aug-13 03:00N 57°53' W 138°41'1 1.3 15.4
2014-Aug-13 02:00N 57°52' W 138°43'1 0.6 15.4
2014-Aug-13 01:00N 57°53' W 138°43'1 1.2 15.5
2014-Aug-13 00:00N 57°53' W 138°46'1 0.8 15.5
2014-Aug-12 23:00N 57°53' W 138°47'2 1.9 15.4
2014-Aug-12 22:00N 57°52' W 138°50'0 0.0 15.4
2014-Aug-12 21:00N 57°52' W 138°50'1 1.4 15.3
2014-Aug-12 20:00N 57°51' W 138°52'0 0.1 15.3
2014-Aug-12 18:00N 57°51' W 138°52'0 0.0 15.1
2014-Aug-12 16:00N 57°51' W 138°52'1 1.3 15.1
2014-Aug-12 15:00N 57°52' W 138°54'0 0.5 15.1
2014-Aug-12 14:00N 57°52' W 138°55'0 0.1 15.1
2014-Aug-12 13:00N 57°52' W 138°55'2 1.6 15.1
2014-Aug-12 12:00N 57°52' W 138°57'1 1.2 15.1
2014-Aug-12 11:00N 57°53' W 138°60'0 0.4 15.1
2014-Aug-12 10:00N 57°53' W 139°00'2 0.8 15.1
2014-Aug-12 07:00N 57°52' W 139°04'1 1.4 15.1
2014-Aug-12 06:00N 57°51' W 139°06'0 0.0 15.1
2014-Aug-12 05:00N 57°51' W 139°06'0 0.5 15.2
2014-Aug-12 04:00N 57°51' W 139°05'1 0.9 15.2
2014-Aug-12 03:00N 57°50' W 139°07'0 0.4 15.2
2014-Aug-12 02:00N 57°50' W 139°07'0 0.0 15.2
2014-Aug-12 00:00N 57°50' W 139°07'0 0.3 15.2
2014-Aug-11 23:00N 57°50' W 139°07'1 0.8 15.2
2014-Aug-11 22:00N 57°51' W 139°09'1 1.1 15.2
2014-Aug-11 21:00N 57°51' W 139°11'2 1.5 15.2
2014-Aug-11 20:00N 57°50' W 139°13'0 0.0 15.2
2014-Aug-11 19:00N 57°50' W 139°13'2 2.3 15.1
2014-Aug-11 18:00N 57°49' W 139°17'1 1.0 15.1
2014-Aug-11 17:00N 57°49' W 139°19'1 0.8 15.1
2014-Aug-11 16:00N 57°48' W 139°18'2 2.0 15.1
2014-Aug-11 15:00N 57°46' W 139°19'1 0.4 15.1
2014-Aug-11 13:00N 57°45' W 139°19'1 0.6 15.1
2014-Aug-11 12:00N 57°45' W 139°19'0 0.0 15.1
2014-Aug-11 10:00N 57°45' W 139°19'   15.1

Dump ship's entire track history